Time;durP1;ratioP1;P1;durP2;ratioP2;P2;SDS_P1;SDS_P2;PMS_P1;PMS_P2;Temp;Humidity;BMP_temperature;BMP_pressure;BME280_temperature;BME280_humidity;BME280_pressure;Samples;Min_cycle;Max_cycle;Signal;HPM_P1;HPM_P2
2023/01/15 05:00:41;;;;;;;4.28;2.30;;;9.80;99.90;;;;;;5708882;23;20357;-69
2023/01/15 05:03:08;;;;;;;2.72;1.92;;;9.80;99.90;;;;;;4855663;29;20053;-69
2023/01/15 05:05:35;;;;;;;4.43;3.40;;;9.90;99.90;;;;;;4859621;29;20056;-69
2023/01/15 05:08:01;;;;;;;7.13;4.88;;;9.90;99.90;;;;;;4863115;29;20100;-70
2023/01/15 05:10:28;;;;;;;5.60;3.90;;;9.90;99.90;;;;;;4879756;29;20055;-70
2023/01/15 05:12:55;;;;;;;2.80;2.00;;;9.90;99.90;;;;;;4873733;29;20562;-70
2023/01/15 05:15:22;;;;;;;2.30;1.48;;;9.80;99.90;;;;;;4857298;29;20057;-70
2023/01/15 05:17:49;;;;;;;1.10;1.00;;;9.80;99.90;;;;;;4869282;29;20077;-70
2023/01/15 05:20:16;;;;;;;1.70;1.25;;;9.80;99.90;;;;;;4853259;29;20041;-70
2023/01/15 05:22:44;;;;;;;1.27;1.17;;;9.70;99.90;;;;;;4878829;29;20040;-70
2023/01/15 05:25:11;;;;;;;0.90;0.90;;;9.80;99.90;;;;;;4885430;29;20052;-70
2023/01/15 05:27:38;;;;;;;0.82;0.82;;;10.70;99.90;;;;;;4892620;29;20044;-70
2023/01/15 05:30:05;;;;;;;0.80;0.80;;;9.70;99.90;;;;;;4893189;29;20079;-70
2023/01/15 05:32:32;;;;;;;1.55;1.50;;;9.60;99.90;;;;;;4878474;29;20546;-69
2023/01/15 05:34:59;;;;;;;0.65;0.65;;;9.50;99.90;;;;;;4858273;29;20060;-71
2023/01/15 05:37:28;;;;;;;0.73;0.73;;;9.40;99.90;;;;;;4871647;29;20147;-69
2023/01/15 05:39:55;;;;;;;0.60;0.60;;;9.40;99.90;;;;;;4876785;29;20585;-70
2023/01/15 05:42:22;;;;;;;0.70;0.70;;;9.20;99.90;;;;;;4876878;29;20541;-70
2023/01/15 05:44:49;;;;;;;0.82;0.82;;;9.60;99.90;;;;;;4893428;29;20417;-69
2023/01/15 05:47:16;;;;;;;0.63;0.63;;;9.10;99.90;;;;;;4880338;29;20049;-70
2023/01/15 05:49:44;;;;;;;0.80;0.80;;;9.00;99.90;;;;;;4873705;29;20644;-70
2023/01/15 05:52:11;;;;;;;0.95;0.70;;;8.80;99.90;;;;;;4873655;29;20109;-70
2023/01/15 05:54:38;;;;;;;0.52;0.52;;;8.90;99.90;;;;;;4858020;29;20067;-69
2023/01/15 05:57:05;;;;;;;0.63;0.63;;;8.90;99.90;;;;;;4853353;29;20060;-69
2023/01/15 05:59:32;;;;;;;0.70;0.70;;;8.80;99.90;;;;;;4875933;29;20078;-70
2023/01/15 06:01:59;;;;;;;0.88;0.88;;;8.80;99.90;;;;;;4859461;29;20780;-70
2023/01/15 06:04:26;;;;;;;0.82;0.82;;;8.80;99.90;;;;;;4854751;29;20052;-70
2023/01/15 06:06:54;;;;;;;0.90;0.90;;;8.80;99.90;;;;;;4872060;29;20136;-70
2023/01/15 06:09:22;;;;;;;0.80;0.80;;;8.70;99.90;;;;;;4876298;29;20712;-70
2023/01/15 06:11:49;;;;;;;0.77;0.77;;;9.00;99.90;;;;;;4892009;29;20509;-70
2023/01/15 06:14:16;;;;;;;0.90;0.90;;;8.60;99.90;;;;;;4877546;29;20494;-70
2023/01/15 06:16:43;;;;;;;4.07;3.65;;;8.70;99.90;;;;;;4865578;29;20124;-69
2023/01/15 06:19:11;;;;;;;3.42;3.10;;;8.60;99.90;;;;;;4892054;29;20068;-69
2023/01/15 06:21:39;;;;;;;4.50;4.07;;;8.70;99.90;;;;;;4876174;29;20056;-69
2023/01/15 06:24:06;;;;;;;1.15;1.15;;;8.60;99.90;;;;;;4891908;29;20134;-69
2023/01/15 06:26:33;;;;;;;3.10;1.30;;;8.50;99.90;;;;;;4870682;29;20129;-69
2023/01/15 06:29:00;;;;;;;1.45;1.35;;;8.50;99.90;;;;;;4874506;29;20041;-69
2023/01/15 06:31:27;;;;;;;0.90;0.90;;;8.40;99.90;;;;;;4857587;29;20120;-69
2023/01/15 06:33:54;;;;;;;1.58;0.80;;;8.40;99.90;;;;;;4872832;29;20407;-69
2023/01/15 06:36:23;;;;;;;0.80;0.80;;;8.40;99.90;;;;;;4876939;29;20048;-69
2023/01/15 06:38:50;;;;;;;1.00;1.00;;;8.30;99.90;;;;;;4876262;29;20079;-70
2023/01/15 06:49:39;;;;;;;1.10;1.10;;;8.20;99.90;;;;;;4859910;29;20053;-69
2023/01/15 06:52:06;;;;;;;1.02;0.93;;;8.70;99.90;;;;;;4874183;29;20423;-69
2023/01/15 06:54:33;;;;;;;0.95;0.95;;;8.20;99.90;;;;;;4874172;29;20053;-69
2023/01/15 06:57:00;;;;;;;1.00;0.90;;;8.50;99.90;;;;;;4881871;29;20045;-69
2023/01/15 06:59:27;;;;;;;0.80;0.80;;;8.00;99.90;;;;;;4875960;29;20139;-69
2023/01/15 07:01:54;;;;;;;0.77;0.77;;;8.00;99.90;;;;;;4882051;29;20569;-69
2023/01/15 07:04:21;;;;;;;0.88;0.88;;;8.00;99.90;;;;;;4857342;29;20045;-69
2023/01/15 07:06:48;;;;;;;0.90;0.90;;;8.40;99.90;;;;;;4879901;29;20048;-69
2023/01/15 07:09:15;;;;;;;1.10;1.00;;;7.90;99.90;;;;;;4892807;29;20055;-69
2023/01/15 07:11:48;;;;;;;0.85;0.80;;;7.90;99.90;;;;;;4875938;29;20052;-69
2023/01/15 07:14:23;;;;;;;0.80;0.80;;;7.90;99.90;;;;;;4844695;29;20429;-69
2023/01/15 07:16:50;;;;;;;1.08;0.98;;;7.90;99.90;;;;;;4877032;29;20063;-69
2023/01/15 07:19:18;;;;;;;1.52;1.42;;;7.80;99.90;;;;;;4870066;29;20460;-69
2023/01/15 07:21:45;;;;;;;1.17;1.08;;;7.80;99.90;;;;;;4857170;29;20144;-69
2023/01/15 07:24:13;;;;;;;0.98;0.98;;;7.80;99.90;;;;;;4857206;29;20041;-69
2023/01/15 07:26:41;;;;;;;1.65;1.30;;;7.80;99.90;;;;;;4876913;29;20446;-70
2023/01/15 07:29:08;;;;;;;2.22;1.90;;;7.80;99.90;;;;;;4857741;29;20050;-70
2023/01/15 07:31:35;;;;;;;3.15;2.53;;;7.80;99.90;;;;;;4874618;29;20057;-69
2023/01/15 07:34:03;;;;;;;3.78;1.80;;;7.70;99.90;;;;;;4859032;29;20052;-69
2023/01/15 07:36:30;;;;;;;2.40;2.10;;;7.60;99.90;;;;;;4863617;29;20061;-69
2023/01/15 07:38:57;;;;;;;2.50;2.10;;;7.60;99.90;;;;;;4877266;29;20052;-69
2023/01/15 07:49:47;;;;;;;2.13;1.92;;;7.60;99.90;;;;;;4855702;29;20132;-69
2023/01/15 07:52:19;;;;;;;6.10;3.80;;;7.50;99.90;;;;;;4840796;29;20069;-69
2023/01/15 07:54:48;;;;;;;2.35;2.00;;;7.50;99.90;;;;;;4840009;29;20061;-69
2023/01/15 07:57:20;;;;;;;3.08;2.13;;;7.40;99.90;;;;;;4873455;29;20069;-69
2023/01/15 07:59:47;;;;;;;3.90;2.85;;;8.80;99.90;;;;;;4874895;29;20056;-69
2023/01/15 08:02:14;;;;;;;3.85;2.88;;;7.90;99.90;;;;;;4837761;29;20055;-70
2023/01/15 08:04:41;;;;;;;3.17;2.50;;;7.40;99.90;;;;;;4875500;29;20060;-69
2023/01/15 08:07:09;;;;;;;2.33;2.13;;;7.50;99.90;;;;;;4884632;29;20055;-70
2023/01/15 08:09:36;;;;;;;3.53;2.47;;;7.50;99.90;;;;;;4894004;29;20053;-70
2023/01/15 08:17:35;;;;;;;1.20;1.10;;;7.40;99.90;;;;;;4910783;29;20075;-69
2023/01/15 08:20:05;;;;;;;1.02;0.98;;;7.40;99.90;;;;;;4866461;29;20565;-69
2023/01/15 08:22:32;;;;;;;1.10;1.00;;;7.40;99.90;;;;;;4893868;29;20052;-69
2023/01/15 08:24:59;;;;;;;2.20;1.70;;;7.50;99.90;;;;;;4893782;29;20057;-69
2023/01/15 08:27:27;;;;;;;1.30;1.20;;;7.50;99.90;;;;;;4882799;29;20478;-69
2023/01/15 08:29:55;;;;;;;1.40;1.00;;;8.00;99.90;;;;;;4874714;29;20060;-69
2023/01/15 08:32:23;;;;;;;1.50;1.40;;;7.50;99.90;;;;;;4874857;29;20057;-69
2023/01/15 08:34:50;;;;;;;2.25;1.10;;;7.60;99.90;;;;;;4856545;29;20057;-69
2023/01/15 08:37:17;;;;;;;1.20;1.10;;;7.40;99.90;;;;;;4856392;29;20109;-69
2023/01/15 08:39:44;;;;;;;1.67;1.38;;;7.40;99.90;;;;;;4856695;29;20667;-70
2023/01/15 08:42:12;;;;;;;1.35;1.23;;;7.40;99.90;;;;;;4854427;29;20041;-69
2023/01/15 08:44:39;;;;;;;0.90;0.90;;;7.40;99.90;;;;;;4872106;29;20071;-66
2023/01/15 08:47:05;;;;;;;1.02;1.02;;;7.30;99.90;;;;;;4858788;29;20078;-67
2023/01/15 08:49:33;;;;;;;0.95;0.90;;;7.30;99.90;;;;;;4857597;29;20521;-67
2023/01/15 08:52:03;;;;;;;0.80;0.80;;;7.30;99.90;;;;;;4885726;29;20084;-67
2023/01/15 08:54:30;;;;;;;0.88;0.88;;;7.40;99.90;;;;;;4854438;29;20060;-68
2023/01/15 08:56:59;;;;;;;2.05;1.60;;;7.40;99.90;;;;;;4855894;29;20049;-68
2023/01/15 08:59:26;;;;;;;2.17;1.77;;;7.30;99.90;;;;;;4858730;29;20049;-67
2023/01/15 09:01:53;;;;;;;2.25;1.20;;;7.30;99.90;;;;;;4858914;29;20061;-68
2023/01/15 09:04:21;;;;;;;2.97;2.10;;;7.30;99.90;;;;;;4858260;29;20060;-67
2023/01/15 09:06:48;;;;;;;3.13;2.05;;;8.30;99.90;;;;;;4872900;29;20119;-68
2023/01/15 09:09:17;;;;;;;2.67;1.92;;;7.20;99.90;;;;;;4860064;29;20649;-68
2023/01/15 09:11:46;;;;;;;3.75;2.00;;;7.30;99.90;;;;;;4876238;29;20045;-68
2023/01/15 09:14:14;;;;;;;2.22;1.40;;;7.30;99.90;;;;;;4875358;29;20106;-67
2023/01/15 09:17:02;;;;;;;1.20;1.10;;;7.30;99.90;;;;;;4868285;29;20599;-67
2023/01/15 09:19:29;;;;;;;1.50;1.40;;;7.30;99.90;;;;;;4885685;29;20072;-68
2023/01/15 09:21:57;;;;;;;1.90;1.60;;;7.30;99.90;;;;;;4872022;29;20128;-68
2023/01/15 09:24:23;;;;;;;1.70;1.60;;;7.30;99.90;;;;;;4872191;29;20053;-68
2023/01/15 09:26:52;;;;;;;1.50;1.40;;;7.20;99.90;;;;;;4856047;29;20057;-67
2023/01/15 09:29:19;;;;;;;1.98;1.58;;;7.30;99.90;;;;;;4842577;29;20052;-68
2023/01/15 09:31:46;;;;;;;1.33;1.23;;;7.20;99.90;;;;;;4870311;29;20068;-68
2023/01/15 09:34:13;;;;;;;1.60;1.50;;;7.20;99.90;;;;;;4872599;29;20141;-68
2023/01/15 09:36:40;;;;;;;1.70;1.30;;;7.20;99.90;;;;;;4867795;29;20045;-68
2023/01/15 09:39:07;;;;;;;2.13;1.67;;;7.20;99.90;;;;;;4842571;29;20546;-68
2023/01/15 09:42:05;;;;;;;2.25;1.35;;;7.20;99.90;;;;;;4856478;29;20040;-67
2023/01/15 09:44:55;;;;;;;1.75;1.65;;;7.20;99.90;;;;;;4870785;29;20041;-68
2023/01/15 09:47:40;;;;;;;2.58;1.45;;;7.10;99.90;;;;;;4861691;29;20423;-68
2023/01/15 09:50:43;;;;;;;1.90;1.40;;;7.10;99.90;;;;;;4872920;29;20059;-68
2023/01/15 09:53:26;;;;;;;1.48;1.27;;;7.10;99.90;;;;;;4873580;29;20049;-67
2023/01/15 09:55:53;;;;;;;1.90;1.70;;;7.10;99.90;;;;;;4872863;29;20060;-68
2023/01/15 09:58:26;;;;;;;1.40;1.30;;;7.10;99.90;;;;;;4867362;29;20528;-64
2023/01/15 10:00:53;;;;;;;1.95;1.27;;;7.10;99.90;;;;;;4869478;29;20384;-64
2023/01/15 10:03:29;;;;;;;3.60;2.20;;;7.00;99.90;;;;;;4841635;29;20057;-64
2023/01/15 10:06:26;;;;;;;2.97;1.70;;;6.90;99.90;;;;;;4869307;29;20041;-66
2023/01/15 10:09:36;;;;;;;1.67;1.58;;;6.90;99.90;;;;;;4880240;29;20061;-66
2023/01/15 10:15:24;;;;;;;1.40;1.20;;;6.90;99.90;;;;;;4882063;29;20045;-67
2023/01/15 10:17:58;;;;;;;1.95;1.30;;;7.00;99.90;;;;;;4816515;29;20049;-67
2023/01/15 10:20:32;;;;;;;1.90;1.70;;;7.00;99.90;;;;;;4855497;29;20514;-67
2023/01/15 10:23:02;;;;;;;1.60;1.50;;;7.00;99.90;;;;;;4852321;29;20060;-67
2023/01/15 10:25:38;;;;;;;2.45;2.00;;;6.90;99.90;;;;;;4871803;29;20041;-67
2023/01/15 10:28:16;;;;;;;1.70;1.60;;;6.90;99.90;;;;;;4858254;29;20041;-68
2023/01/15 10:30:54;;;;;;;2.67;2.08;;;6.90;99.90;;;;;;4855386;29;20136;-68
2023/01/15 10:33:49;;;;;;;2.38;1.67;;;6.90;99.90;;;;;;4862662;29;20060;-68
2023/01/15 10:36:30;;;;;;;3.85;2.03;;;6.90;99.90;;;;;;4861955;29;20049;-67
2023/01/15 10:39:08;;;;;;;2.95;2.20;;;6.90;99.90;;;;;;4857265;29;20060;-68
2023/01/15 10:41:46;;;;;;;7.88;5.28;;;6.90;99.90;;;;;;4851916;29;20433;-68
2023/01/15 10:44:19;;;;;;;7.18;4.07;;;6.90;99.90;;;;;;4857188;29;20045;-67
2023/01/15 10:46:52;;;;;;;10.30;4.95;;;6.90;99.90;;;;;;4863188;29;20060;-68
2023/01/15 10:49:21;;;;;;;2.70;1.50;;;6.80;99.90;;;;;;4872892;29;20514;-68
2023/01/15 10:51:57;;;;;;;6.47;4.13;;;6.90;99.90;;;;;;4856558;29;20069;-71
2023/01/15 10:54:41;;;;;;;6.47;3.10;;;6.90;99.90;;;;;;4872201;29;20769;-69
2023/01/15 10:57:40;;;;;;;7.00;3.75;;;6.90;99.90;;;;;;4878754;29;20060;-69
2023/01/15 11:00:09;;;;;;;5.53;2.67;;;6.90;99.90;;;;;;4865144;29;20057;-69
2023/01/15 11:02:43;;;;;;;12.30;5.22;;;6.90;99.90;;;;;;4860458;29;20041;-70
2023/01/15 11:05:15;;;;;;;5.22;3.35;;;6.90;99.90;;;;;;4845083;29;20053;-68
2023/01/15 11:07:48;;;;;;;2.65;1.83;;;6.90;99.90;;;;;;4877175;29;20500;-68
2023/01/15 11:10:36;;;;;;;4.18;2.15;;;6.90;99.90;;;;;;4858944;29;20064;-71
2023/01/15 11:19:38;;;;;;;3.53;1.80;;;6.90;99.90;;;;;;4868782;29;20128;-68
2023/01/15 11:22:27;;;;;;;2.22;1.50;;;6.90;99.90;;;;;;4851672;29;20045;-68
2023/01/15 11:24:57;;;;;;;4.80;1.42;;;7.00;99.90;;;;;;4869375;29;20170;-68
2023/01/15 11:27:27;;;;;;;2.22;1.35;;;6.90;99.90;;;;;;4860474;29;20136;-68
2023/01/15 11:29:57;;;;;;;2.25;1.65;;;6.80;99.90;;;;;;4859991;29;20440;-68
2023/01/15 11:32:36;;;;;;;2.55;1.40;;;6.90;99.90;;;;;;4874951;29;20585;-68
2023/01/15 11:35:15;;;;;;;3.35;2.08;;;6.80;99.90;;;;;;4860814;29;20064;-68
2023/01/15 11:37:42;;;;;;;2.37;1.40;;;6.80;99.90;;;;;;4886327;29;20051;-69
2023/01/15 11:40:23;;;;;;;6.63;1.40;;;7.50;99.90;;;;;;4896120;29;20308;-68
2023/01/15 11:51:40;;;;;;;2.22;1.40;;;6.60;99.90;;;;;;4877220;29;20124;-68
2023/01/15 11:54:10;;;;;;;1.20;1.15;;;6.50;99.90;;;;;;4860513;29;20060;-68
2023/01/15 11:56:43;;;;;;;1.60;1.15;;;6.60;99.90;;;;;;4878705;29;20064;-68
2023/01/15 11:59:18;;;;;;;1.73;1.40;;;6.60;99.90;;;;;;4874415;29;20060;-68
2023/01/15 12:01:57;;;;;;;2.88;1.30;;;7.70;99.90;;;;;;4884944;29;20076;-68
2023/01/15 12:04:41;;;;;;;3.15;1.20;;;6.60;99.90;;;;;;4868554;29;20053;-68
2023/01/15 12:07:12;;;;;;;2.22;1.35;;;6.60;99.90;;;;;;4882426;29;20061;-68
2023/01/15 12:10:13;;;;;;;1.30;1.10;;;6.60;99.90;;;;;;4895276;29;20399;-68
2023/01/15 12:13:00;;;;;;;1.30;1.00;;;6.70;99.90;;;;;;4878279;29;20060;-68
2023/01/15 12:15:35;;;;;;;5.97;1.85;;;6.60;99.90;;;;;;4878569;29;20087;-68
2023/01/15 12:18:25;;;;;;;3.92;1.70;;;6.70;99.90;;;;;;4866520;29;20049;-69
2023/01/15 12:21:27;;;;;;;2.13;1.42;;;6.80;99.90;;;;;;4875266;29;20148;-69
2023/01/15 12:24:38;;;;;;;2.20;1.20;;;6.90;99.90;;;;;;4875159;29;20059;-69
2023/01/15 12:27:31;;;;;;;1.30;1.20;;;7.00;99.90;;;;;;4879565;29;20599;-69
2023/01/15 12:30:05;;;;;;;2.40;1.40;;;6.90;99.90;;;;;;4886369;29;20100;-69
2023/01/15 12:32:42;;;;;;;5.57;1.88;;;6.90;99.90;;;;;;4880860;29;20446;-69
2023/01/15 12:35:14;;;;;;;4.22;2.35;;;6.80;99.90;;;;;;4860223;29;20124;-69
2023/01/15 12:37:51;;;;;;;3.35;2.10;;;8.00;99.90;;;;;;4884106;29;20509;-68
2023/01/15 12:40:39;;;;;;;2.78;1.65;;;6.90;99.90;;;;;;4891658;29;20048;-68
2023/01/15 12:46:24;;;;;;;5.65;2.08;;;7.30;99.70;;;;;;4893356;29;20052;-69
2023/01/15 12:49:08;;;;;;;4.65;1.73;;;7.40;99.40;;;;;;4875292;29;20041;-68
2023/01/15 12:51:48;;;;;;;5.22;1.98;;;7.50;99.40;;;;;;4874576;29;20053;-68
2023/01/15 12:54:20;;;;;;;3.33;1.65;;;7.60;99.20;;;;;;4874417;29;20108;-69
2023/01/15 12:56:49;;;;;;;4.38;1.90;;;7.60;98.70;;;;;;4860969;29;20081;-68
2023/01/15 12:59:20;;;;;;;7.78;1.70;;;7.80;98.90;;;;;;4893149;29;20048;-68
2023/01/15 13:02:08;;;;;;;3.58;1.90;;;9.60;98.70;;;;;;4884505;29;20044;-68
2023/01/15 13:05:07;;;;;;;8.25;2.50;;;8.50;98.20;;;;;;4874619;29;20940;-68
2023/01/15 13:07:41;;;;;;;4.32;1.50;;;10.20;97.20;;;;;;4860065;29;20131;-68
2023/01/15 13:10:21;;;;;;;3.13;1.35;;;10.70;95.20;;;;;;4889815;29;20466;-69
2023/01/15 13:12:48;;;;;;;3.95;1.83;;;11.50;94.10;;;;;;4890198;29;20434;-68
2023/01/15 13:15:17;;;;;;;2.85;1.42;;;12.20;93.20;;;;;;4874115;29;20064;-69
2023/01/15 13:18:11;;;;;;;4.35;1.38;;;12.30;91.90;;;;;;4883156;29;20048;-68
2023/01/15 13:20:52;;;;;;;6.20;1.58;;;12.60;91.80;;;;;;4892723;29;20135;-67
2023/01/15 13:23:40;;;;;;;3.05;1.50;;;13.90;90.40;;;;;;4877201;29;20056;-68
2023/01/15 13:26:31;;;;;;;4.03;1.90;;;14.70;89.50;;;;;;4853002;29;20406;-69
2023/01/15 13:29:05;;;;;;;2.53;1.30;;;14.40;84.40;;;;;;4892733;29;20413;-69
2023/01/15 13:31:53;;;;;;;3.92;1.63;;;13.70;84.30;;;;;;4883868;29;20121;-69
2023/01/15 13:34:35;;;;;;;4.47;2.03;;;13.60;85.80;;;;;;4858138;29;20053;-70
2023/01/15 13:37:14;;;;;;;3.13;1.60;;;13.90;84.30;;;;;;4867834;29;20446;-69
2023/01/15 13:39:42;;;;;;;2.30;1.58;;;14.10;82.20;;;;;;4877057;29;20057;-69
2023/01/15 13:42:33;;;;;;;3.58;1.65;;;14.50;83.10;;;;;;4865109;29;20055;-69
2023/01/15 13:45:32;;;;;;;5.25;1.80;;;14.70;80.60;;;;;;4860183;29;20064;-69
2023/01/15 13:48:30;;;;;;;3.90;2.10;;;15.00;81.30;;;;;;4877850;29;20160;-69
2023/01/15 13:50:59;;;;;;;2.38;1.33;;;14.90;79.40;;;;;;4841637;29;20067;-69
2023/01/15 13:53:30;;;;;;;3.17;1.55;;;14.30;78.80;;;;;;4873557;29;20053;-69
2023/01/15 13:56:06;;;;;;;5.72;2.42;;;14.20;79.90;;;;;;4864922;29;20045;-69
2023/01/15 13:58:39;;;;;;;3.83;2.50;;;14.20;79.80;;;;;;4862498;29;20570;-68
2023/01/15 14:01:29;;;;;;;3.63;1.70;;;14.40;80.70;;;;;;4873837;29;20072;-69
2023/01/15 14:04:08;;;;;;;5.68;2.47;;;14.20;78.70;;;;;;4869726;29;20113;-70
2023/01/15 14:06:48;;;;;;;2.70;1.40;;;13.50;81.30;;;;;;4873539;29;20125;-69
2023/01/15 14:09:22;;;;;;;4.40;1.70;;;12.70;82.40;;;;;;4873387;29;20057;-69
2023/01/15 14:12:39;;;;;;;4.30;1.52;;;12.90;84.40;;;;;;4854690;29;20061;-68
2023/01/15 14:15:27;;;;;;;4.63;1.70;;;13.00;83.50;;;;;;4834118;29;20623;-69
2023/01/15 14:18:07;;;;;;;2.55;1.35;;;13.00;81.10;;;;;;4873142;29;20063;-69
2023/01/15 14:20:37;;;;;;;4.45;1.83;;;13.00;83.20;;;;;;4893548;29;20055;-69
2023/01/15 14:23:20;;;;;;;2.92;1.58;;;13.10;81.70;;;;;;4891479;29;20048;-69
2023/01/15 14:25:55;;;;;;;4.18;1.60;;;13.10;81.20;;;;;;4891871;29;20048;-69
2023/01/15 14:28:40;;;;;;;3.53;1.80;;;12.50;82.70;;;;;;4863901;29;20045;-69
2023/01/15 14:31:07;;;;;;;3.47;1.67;;;11.60;84.40;;;;;;4874486;29;20558;-69
2023/01/15 14:33:46;;;;;;;3.50;1.90;;;10.80;87.90;;;;;;4872765;29;20060;-69
2023/01/15 14:36:19;;;;;;;2.53;1.73;;;10.20;89.30;;;;;;4876857;29;20053;-69
2023/01/15 14:38:49;;;;;;;6.10;1.92;;;9.70;91.00;;;;;;4894406;29;20055;-69
2023/01/15 14:41:16;;;;;;;;;;;9.40;92.60;;;;;;4896247;29;20084;-69
2023/01/15 14:43:47;;;;;;;2.30;1.45;;;9.40;93.50;;;;;;4879687;29;20470;-69
2023/01/15 14:46:29;;;;;;;7.00;3.97;;;9.10;94.40;;;;;;4880042;29;20055;-69
2023/01/15 14:48:56;;;;;;;3.38;1.80;;;9.20;94.70;;;;;;4860169;29;20051;-69
2023/01/15 14:51:48;;;;;;;6.50;1.80;;;9.30;94.90;;;;;;4858315;29;20467;-69
2023/01/15 14:54:18;;;;;;;4.55;2.08;;;9.20;94.90;;;;;;4857833;29;20045;-69
2023/01/15 14:56:49;;;;;;;;;;;9.10;94.70;;;;;;4859011;29;20064;-69
2023/01/15 14:59:26;;;;;;;6.75;4.20;;;9.00;94.90;;;;;;4843066;29;19924;-69
2023/01/15 15:02:00;;;;;;;2.67;1.80;;;8.90;95.00;;;;;;4851732;29;20510;-69
2023/01/15 15:04:42;;;;;;;2.15;1.50;;;8.90;94.90;;;;;;4876843;29;20041;-69
2023/01/15 15:07:15;;;;;;;4.97;2.03;;;8.70;94.80;;;;;;4863570;29;20109;-69
2023/01/15 15:09:45;;;;;;;2.22;1.67;;;8.60;95.40;;;;;;4891931;29;20063;-69
2023/01/15 15:12:25;;;;;;;3.30;2.38;;;9.10;95.90;;;;;;4894867;29;20068;-69
2023/01/15 15:15:02;;;;;;;6.68;3.30;;;8.50;95.90;;;;;;4871207;29;20064;-68
2023/01/15 15:18:00;;;;;;;4.55;2.53;;;8.50;96.40;;;;;;4893493;29;20368;-68
2023/01/15 15:20:50;;;;;;;4.53;1.90;;;8.50;96.60;;;;;;4855142;29;20128;-69
2023/01/15 15:23:35;;;;;;;10.07;8.90;;;8.50;96.90;;;;;;4857117;29;20050;-69
2023/01/15 15:26:21;;;;;;;3.10;1.95;;;8.40;96.70;;;;;;4846487;29;20076;-69
2023/01/15 15:29:08;;;;;;;3.30;1.52;;;8.30;96.90;;;;;;4840882;29;20061;-69
2023/01/15 15:31:38;;;;;;;8.63;4.95;;;8.20;97.30;;;;;;4834093;29;20443;-69
2023/01/15 15:34:38;;;;;;;5.18;4.20;;;8.30;97.20;;;;;;4837339;29;20062;-69
2023/01/15 15:37:22;;;;;;;7.05;4.38;;;8.20;97.20;;;;;;4839242;29;20122;-69
2023/01/15 15:40:01;;;;;;;7.28;6.25;;;8.00;97.40;;;;;;4855928;29;20059;-69
2023/01/15 15:51:04;;;;;;;3.78;2.35;;;8.50;98.10;;;;;;4837722;29;20202;-69
2023/01/15 15:53:31;;;;;;;2.80;1.80;;;7.60;98.20;;;;;;4837765;29;20595;-69
2023/01/15 15:55:59;;;;;;;2.58;2.10;;;8.20;98.60;;;;;;4837995;29;20057;-69
2023/01/15 15:58:35;;;;;;;2.22;1.63;;;7.60;98.70;;;;;;4886182;29;20057;-69
2023/01/15 16:01:02;;;;;;;5.88;3.15;;;7.60;98.50;;;;;;4876327;29;20456;-68
2023/01/15 16:03:30;;;;;;;4.80;1.77;;;7.70;98.60;;;;;;4860064;29;20669;-69
2023/01/15 16:06:06;;;;;;;3.03;2.38;;;7.70;98.70;;;;;;4875855;29;20522;-69
2023/01/15 16:08:34;;;;;;;3.60;2.00;;;7.60;98.40;;;;;;4857273;29;20734;-69
2023/01/15 16:11:07;;;;;;;6.75;1.92;;;7.70;98.50;;;;;;4871251;29;20399;-69
2023/01/15 16:13:40;;;;;;;5.82;2.20;;;7.70;98.30;;;;;;4855972;29;20057;-66
2023/01/15 16:16:08;;;;;;;2.83;1.98;;;7.60;98.30;;;;;;4852635;29;20502;-73
2023/01/15 16:18:43;;;;;;;2.28;1.70;;;7.60;98.40;;;;;;4855395;29;20060;-69
2023/01/15 16:21:16;;;;;;;2.90;1.75;;;7.70;98.40;;;;;;4871488;29;20049;-72
2023/01/15 16:23:57;;;;;;;3.42;1.80;;;7.60;98.40;;;;;;4859287;29;20437;-70
2023/01/15 16:26:34;;;;;;;4.20;1.90;;;7.50;98.30;;;;;;4875480;29;20049;-70
2023/01/15 16:29:04;;;;;;;2.22;1.50;;;7.80;98.40;;;;;;4874957;29;20104;-71
2023/01/15 16:31:36;;;;;;;10.07;2.95;;;8.70;98.70;;;;;;4848040;29;20144;-70
2023/01/15 16:34:03;;;;;;;5.25;2.13;;;7.50;98.50;;;;;;4859485;29;20056;-71
2023/01/15 16:36:44;;;;;;;3.17;1.95;;;7.50;98.30;;;;;;4859586;29;20649;-71
2023/01/15 16:39:27;;;;;;;3.17;1.70;;;8.30;98.40;;;;;;4873683;29;20453;-72
2023/01/15 16:41:57;;;;;;;4.85;1.83;;;7.40;98.20;;;;;;4854881;29;20056;-71
2023/01/15 16:44:48;;;;;;;4.25;2.17;;;8.50;98.50;;;;;;4874583;29;20135;-71
2023/01/15 16:47:25;;;;;;;3.65;2.78;;;7.40;98.20;;;;;;4876181;29;20399;-71
2023/01/15 16:49:52;;;;;;;3.83;1.98;;;7.40;98.00;;;;;;4856519;29;20069;-71
2023/01/15 16:52:50;;;;;;;4.10;3.70;;;7.30;98.00;;;;;;4854926;29;20049;-71
2023/01/15 16:55:41;;;;;;;2.85;1.90;;;7.30;98.00;;;;;;4856124;29;20132;-71
2023/01/15 16:58:11;;;;;;;3.88;2.22;;;7.30;98.10;;;;;;4873079;29;20060;-71
2023/01/15 17:00:40;;;;;;;5.25;2.33;;;7.30;98.10;;;;;;4892538;29;20672;-71
2023/01/15 17:03:33;;;;;;;5.20;2.20;;;7.70;98.30;;;;;;4860294;29;20043;-71
2023/01/15 17:06:11;;;;;;;4.70;2.38;;;7.50;98.30;;;;;;4868551;29;20067;-71
2023/01/15 17:08:44;;;;;;;4.93;2.05;;;7.20;98.30;;;;;;4880303;29;20052;-71
2023/01/15 17:11:25;;;;;;;4.45;2.17;;;7.80;98.30;;;;;;4858025;29;20078;-71
2023/01/15 17:14:06;;;;;;;8.63;3.78;;;7.10;98.00;;;;;;4849008;29;20073;-71
2023/01/15 17:16:34;;;;;;;9.30;6.38;;;7.70;98.30;;;;;;4870128;29;20818;-71
2023/01/15 17:19:04;;;;;;;7.63;5.30;;;7.10;98.10;;;;;;4871189;29;20049;-71
2023/01/15 17:21:32;;;;;;;6.78;3.25;;;7.70;98.20;;;;;;4858035;29;20049;-71
2023/01/15 17:23:59;;;;;;;5.55;3.45;;;7.10;98.00;;;;;;4852085;29;20046;-71
2023/01/15 17:26:26;;;;;;;10.25;5.22;;;7.10;97.80;;;;;;4873915;29;20045;-71
2023/01/15 17:28:53;;;;;;;5.15;3.10;;;7.10;97.80;;;;;;4859731;29;20049;-71
2023/01/15 17:31:28;;;;;;;6.35;2.92;;;7.10;97.70;;;;;;4875227;29;20052;-70
2023/01/15 17:33:58;;;;;;;11.60;6.45;;;7.00;97.80;;;;;;4873513;29;20053;-71
2023/01/15 17:36:26;;;;;;;3.47;1.73;;;7.00;97.70;;;;;;4874229;29;20060;-71
2023/01/15 17:38:53;;;;;;;3.50;2.20;;;7.10;97.40;;;;;;4864693;29;20077;-71
2023/01/15 17:41:21;;;;;;;4.60;2.75;;;7.00;97.40;;;;;;4878418;29;20391;-70
2023/01/15 17:43:49;;;;;;;3.70;2.17;;;7.70;97.40;;;;;;4858276;29;20081;-71
2023/01/15 17:46:17;;;;;;;4.70;2.85;;;7.10;97.20;;;;;;4875186;29;20045;-71
2023/01/15 17:48:45;;;;;;;5.95;2.33;;;8.60;97.60;;;;;;4886609;29;20049;-71
2023/01/15 17:51:14;;;;;;;3.10;2.30;;;5.20;96.70;;;;;;4893227;29;20617;-71
2023/01/15 17:53:41;;;;;;;5.18;1.83;;;7.00;97.20;;;;;;4892484;29;20056;-71
2023/01/15 18:07:34;;;;;;;4.32;2.10;;;6.80;96.80;;;;;;4862806;29;20076;-72
2023/01/15 18:10:02;;;;;;;5.88;3.70;;;7.00;96.80;;;;;;4861452;29;20044;-71
2023/01/15 18:12:30;;;;;;;6.00;3.28;;;7.00;96.70;;;;;;4859174;29;20503;-71
2023/01/15 18:14:57;;;;;;;4.00;2.08;;;7.00;96.60;;;;;;4879874;29;20160;-71
2023/01/15 18:17:24;;;;;;;4.88;2.25;;;7.00;96.50;;;;;;4859214;29;20132;-71
2023/01/15 18:19:52;;;;;;;4.47;2.72;;;7.00;96.70;;;;;;4858088;29;20055;-71
2023/01/15 18:22:28;;;;;;;3.55;2.92;;;7.00;96.50;;;;;;4854144;29;20084;-71
2023/01/15 18:26:08;;;;;;;4.05;2.50;;;6.90;96.50;;;;;;4873919;29;20109;-71
2023/01/15 18:34:07;;;;;;;3.13;1.73;;;7.00;96.50;;;;;;4861850;29;20044;-71
2023/01/15 18:38:08;;;;;;;3.30;1.95;;;7.00;96.50;;;;;;4756448;30;20059;-71
2023/01/15 18:48:15;;;;;;;6.30;2.55;;;6.90;96.70;;;;;;4786717;29;20683;-70
2023/01/15 18:50:43;;;;;;;6.20;3.53;;;6.90;96.60;;;;;;4797250;29;20055;-70
2023/01/15 18:53:11;;;;;;;4.88;3.28;;;6.90;96.50;;;;;;4787585;29;20137;-70
2023/01/15 18:55:38;;;;;;;4.53;2.13;;;8.50;97.00;;;;;;4797449;29;20507;-71
2023/01/15 18:58:05;;;;;;;5.22;2.50;;;7.00;96.50;;;;;;4784927;29;20056;-71
2023/01/15 19:00:32;;;;;;;4.05;3.25;;;6.90;96.30;;;;;;4780373;29;20054;-70
2023/01/15 19:03:03;;;;;;;4.47;2.08;;;6.90;96.40;;;;;;4779438;29;20377;-71
2023/01/15 19:05:33;;;;;;;5.65;3.10;;;6.90;96.50;;;;;;4805523;29;20104;-71
2023/01/15 19:08:00;;;;;;;6.57;2.38;;;6.90;96.40;;;;;;4788547;29;20518;-71
2023/01/15 19:10:27;;;;;;;3.75;2.30;;;6.90;96.50;;;;;;4807519;29;21802;-71
2023/01/15 19:12:56;;;;;;;3.65;2.15;;;6.80;96.50;;;;;;4811027;29;20046;-71
2023/01/15 19:20:58;;;;;;;7.07;2.30;;;7.90;96.80;;;;;;4872600;29;20132;-71
2023/01/15 19:23:36;;;;;;;3.58;1.95;;;6.80;96.60;;;;;;4857394;29;20538;-70
2023/01/15 19:26:04;;;;;;;8.70;2.63;;;6.80;96.50;;;;;;4857792;29;20055;-71
2023/01/15 19:28:34;;;;;;;3.47;2.20;;;6.80;96.50;;;;;;4860870;29;20581;-71
2023/01/15 19:33:55;;;;;;;4.90;2.05;;;6.80;96.60;;;;;;4862879;29;20104;-70
2023/01/15 19:36:48;;;;;;;4.85;2.72;;;6.70;96.30;;;;;;4876577;29;20049;-71
2023/01/15 19:39:19;;;;;;;3.97;1.88;;;6.70;96.50;;;;;;4873634;29;20116;-70
2023/01/15 19:50:53;;;;;;;3.83;1.73;;;6.70;96.50;;;;;;4875531;29;20041;-70
2023/01/15 19:53:23;;;;;;;3.88;2.28;;;6.80;96.40;;;;;;4873018;29;20101;-70
2023/01/15 19:55:53;;;;;;;5.72;2.10;;;7.10;96.60;;;;;;4875034;29;20049;-71
2023/01/15 19:58:24;;;;;;;3.33;2.08;;;6.60;96.50;;;;;;4867884;29;20048;-71
2023/01/15 20:00:51;;;;;;;4.65;1.95;;;6.50;96.50;;;;;;4855994;29;20463;-71
2023/01/15 20:03:22;;;;;;;5.47;2.10;;;6.50;96.50;;;;;;4874108;29;20045;-71
2023/01/15 20:05:49;;;;;;;9.43;2.33;;;6.50;96.60;;;;;;4874332;29;20041;-71